Time;durP1;ratioP1;P1;durP2;ratioP2;P2;SDS_P1;SDS_P2;PMS_P1;PMS_P2;Temp;Humidity;BMP_temperature;BMP_pressure;BME280_temperature;BME280_humidity;BME280_pressure;Samples;Min_cycle;Max_cycle;Signal;HPM_P1;HPM_P2
2021/07/21 00:00:48;;;;;;;19.38;11.50;;;;;;;;;;5040258;28;20434;-64
2021/07/21 00:03:14;;;;;;;16.33;10.30;;;;;;;;;;5042388;28;20056;-64
2021/07/21 00:05:42;;;;;;;16.85;10.25;;;;;;;;;;5041611;28;20195;-64
2021/07/21 00:08:08;;;;;;;15.65;10.70;;;;;;;;;;5035602;28;20056;-64
2021/07/21 00:10:35;;;;;;;17.42;11.10;;;;;;;;;;5039627;28;20037;-64
2021/07/21 00:15:57;;;;;;;14.98;10.10;;;;;;;;;;5038744;28;20071;-65
2021/07/21 00:18:44;;;;;;;13.00;8.70;;;;;;;;;;5039888;28;20037;-64
2021/07/21 00:21:11;;;;;;;13.88;9.00;;;;;;;;;;5045657;28;20072;-64
2021/07/21 00:23:39;;;;;;;12.63;8.27;;;;;;;;;;5043806;28;20397;-64
2021/07/21 00:26:05;;;;;;;12.23;7.65;;;;;;;;;;5042829;28;20049;-64
2021/07/21 00:28:32;;;;;;;10.60;7.38;;;;;;;;;;5042138;28;20041;-64
2021/07/21 00:30:59;;;;;;;12.23;7.95;;;;;;;;;;5042633;28;20041;-65
2021/07/21 00:33:25;;;;;;;13.20;9.07;;;;;;;;;;5042989;28;20060;-64
2021/07/21 00:35:51;;;;;;;16.42;10.13;;;;;;;;;;5038328;28;20065;-64
2021/07/21 00:38:18;;;;;;;11.00;7.80;;;;;;;;;;5032841;28;21795;-64
2021/07/21 00:40:44;;;;;;;11.90;8.05;;;;;;;;;;5031030;28;20049;-65
2021/07/21 00:43:10;;;;;;;12.88;6.97;;;;;;;;;;5035587;28;20457;-64
2021/07/21 00:45:36;;;;;;;13.13;8.48;;;;;;;;;;5044490;28;20047;-64
2021/07/21 00:48:03;;;;;;;12.68;7.85;;;;;;;;;;5046540;28;20052;-64
2021/07/21 00:50:29;;;;;;;12.82;7.22;;;;;;;;;;5045460;28;20114;-64
2021/07/21 00:52:56;;;;;;;12.73;7.63;;;;;;;;;;5039063;28;20195;-64
2021/07/21 00:55:24;;;;;;;12.35;7.22;;;;;;;;;;5040281;28;20503;-64
2021/07/21 00:57:51;;;;;;;12.57;7.40;;;;;;;;;;5044630;28;20194;-64
2021/07/21 01:00:17;;;;;;;12.43;7.13;;;;;;;;;;5041232;28;20037;-64
2021/07/21 01:02:45;;;;;;;12.05;6.57;;;;;;;;;;5042606;28;20523;-64
2021/07/21 01:05:13;;;;;;;10.52;6.28;;;;;;;;;;5042127;28;20476;-64
2021/07/21 01:07:41;;;;;;;7.82;5.13;;;;;;;;;;5043459;28;20041;-64
2021/07/21 01:10:08;;;;;;;10.88;5.82;;;;;;;;;;5046271;28;20150;-64
2021/07/21 01:12:48;;;;;;;10.32;6.40;;;;;;;;;;5044228;28;20134;-64
2021/07/21 01:15:19;;;;;;;13.70;7.22;;;;;;;;;;5042990;28;20059;-64
2021/07/21 01:17:48;;;;;;;13.48;7.85;;;;;;;;;;5043737;28;20061;-64
2021/07/21 01:20:25;;;;;;;16.10;9.45;;;;;;;;;;5038720;28;20110;-64
2021/07/21 01:22:55;;;;;;;16.52;9.32;;;;;;;;;;5045306;28;20041;-64
2021/07/21 01:25:27;;;;;;;15.52;10.57;;;;;;;;;;5044886;28;20706;-64
2021/07/21 01:27:55;;;;;;;21.98;11.82;;;;;;;;;;5045752;28;20090;-64
2021/07/21 01:30:23;;;;;;;18.05;11.45;;;;;;;;;;5045577;28;20163;-64
2021/07/21 01:32:52;;;;;;;21.45;12.70;;;;;;;;;;5044664;28;20075;-64
2021/07/21 01:35:26;;;;;;;19.20;13.23;;;;;;;;;;5043099;28;20061;-64
2021/07/21 01:37:52;;;;;;;;;;;;;;;;;;5046542;28;20359;-64
2021/07/21 01:40:21;;;;;;;20.33;12.07;;;;;;;;;;5045772;28;19940;-64
2021/07/21 01:42:50;;;;;;;27.00;13.45;;;;;;;;;;5044532;28;20052;-64
2021/07/21 01:45:17;;;;;;;20.13;12.10;;;;;;;;;;5046156;28;20206;-64
2021/07/21 01:47:44;;;;;;;21.20;12.02;;;;;;;;;;5047133;28;20504;-64
2021/07/21 01:50:12;;;;;;;20.15;12.35;;;;;;;;;;5045939;28;20056;-64
2021/07/21 01:52:40;;;;;;;21.77;12.75;;;;;;;;;;5043825;28;20120;-64
2021/07/21 01:55:08;;;;;;;26.95;12.10;;;;;;;;;;5044890;28;20036;-64
2021/07/21 01:57:34;;;;;;;26.52;12.05;;;;;;;;;;5040353;28;20049;-64
2021/07/21 02:00:01;;;;;;;17.90;12.35;;;;;;;;;;5042146;28;20103;-64
2021/07/21 02:02:29;;;;;;;20.00;12.52;;;;;;;;;;5043477;28;20120;-64
2021/07/21 02:04:55;;;;;;;19.73;12.95;;;;;;;;;;5047100;28;20044;-65
2021/07/21 02:07:23;;;;;;;17.58;12.55;;;;;;;;;;5047441;28;20053;-64
2021/07/21 02:09:49;;;;;;;19.45;12.18;;;;;;;;;;5043669;28;20049;-64
2021/07/21 02:12:16;;;;;;;16.90;12.00;;;;;;;;;;5041614;28;20075;-64
2021/07/21 02:14:43;;;;;;;21.98;12.45;;;;;;;;;;5037132;28;20087;-64
2021/07/21 02:17:09;;;;;;;19.10;12.73;;;;;;;;;;5042456;28;20052;-64
2021/07/21 02:19:36;;;;;;;20.38;12.73;;;;;;;;;;5046449;28;20045;-64
2021/07/21 02:22:03;;;;;;;17.67;12.15;;;;;;;;;;5039890;28;20048;-64
2021/07/21 02:24:30;;;;;;;22.02;13.45;;;;;;;;;;5043800;28;20041;-64
2021/07/21 02:26:56;;;;;;;20.15;12.68;;;;;;;;;;5044659;28;20084;-64
2021/07/21 02:29:23;;;;;;;18.95;12.70;;;;;;;;;;5043249;28;20045;-64
2021/07/21 02:31:49;;;;;;;19.80;12.65;;;;;;;;;;5043136;28;20124;-64
2021/07/21 02:34:15;;;;;;;19.52;12.80;;;;;;;;;;5045203;28;20119;-64
2021/07/21 02:36:41;;;;;;;20.27;13.18;;;;;;;;;;5044734;28;20126;-64
2021/07/21 02:39:08;;;;;;;21.42;13.63;;;;;;;;;;5035389;28;20362;-64
2021/07/21 02:41:35;;;;;;;19.00;13.15;;;;;;;;;;5034247;28;20061;-64
2021/07/21 02:44:02;;;;;;;20.52;13.80;;;;;;;;;;5042854;28;20037;-64
2021/07/21 02:46:28;;;;;;;20.48;13.38;;;;;;;;;;5043216;28;20041;-64
2021/07/21 02:48:56;;;;;;;20.35;12.43;;;;;;;;;;5042829;28;20089;-64
2021/07/21 02:51:28;;;;;;;19.98;13.18;;;;;;;;;;5044411;28;20043;-64
2021/07/21 02:53:57;;;;;;;19.05;12.88;;;;;;;;;;5042445;28;20057;-64
2021/07/21 02:56:25;;;;;;;23.95;13.30;;;;;;;;;;5044414;28;20055;-64
2021/07/21 02:59:00;;;;;;;20.67;13.27;;;;;;;;;;5046467;28;20041;-64
2021/07/21 03:01:29;;;;;;;19.48;13.60;;;;;;;;;;5043036;28;20049;-64
2021/07/21 03:03:56;;;;;;;19.55;13.23;;;;;;;;;;5043439;28;20052;-64
2021/07/21 03:06:25;;;;;;;21.30;14.30;;;;;;;;;;5040439;28;20087;-64
2021/07/21 03:08:51;;;;;;;25.50;13.52;;;;;;;;;;5039552;28;20050;-64
2021/07/21 03:11:18;;;;;;;20.63;13.38;;;;;;;;;;5040720;28;20492;-64
2021/07/21 03:13:50;;;;;;;22.92;13.52;;;;;;;;;;5042309;28;20124;-64
2021/07/21 03:16:17;;;;;;;20.77;13.27;;;;;;;;;;5042489;28;20077;-64
2021/07/21 03:18:46;;;;;;;17.67;11.88;;;;;;;;;;5043879;28;20304;-64
2021/07/21 03:21:13;;;;;;;20.88;12.95;;;;;;;;;;5041851;28;20045;-64
2021/07/21 03:23:39;;;;;;;19.75;12.20;;;;;;;;;;5043762;28;21392;-65
2021/07/21 03:26:07;;;;;;;19.02;12.35;;;;;;;;;;5042428;28;20048;-64
2021/07/21 03:28:33;;;;;;;15.88;10.68;;;;;;;;;;5045021;28;20064;-64
2021/07/21 03:31:01;;;;;;;17.75;10.57;;;;;;;;;;5042551;28;20063;-64
2021/07/21 03:33:28;;;;;;;16.83;10.75;;;;;;;;;;5042764;28;20077;-64
2021/07/21 03:36:00;;;;;;;17.48;10.60;;;;;;;;;;5044496;28;20103;-64
2021/07/21 03:38:26;;;;;;;15.18;10.40;;;;;;;;;;5042836;28;20527;-64
2021/07/21 03:40:53;;;;;;;16.58;10.95;;;;;;;;;;5041791;28;20422;-64
2021/07/21 03:43:21;;;;;;;17.25;11.07;;;;;;;;;;5040916;28;20118;-64
2021/07/21 03:45:48;;;;;;;17.95;12.18;;;;;;;;;;5041459;28;20049;-64
2021/07/21 03:48:18;;;;;;;19.23;12.20;;;;;;;;;;5039524;28;20037;-64
2021/07/21 03:50:45;;;;;;;21.75;12.65;;;;;;;;;;5040564;28;20469;-64
2021/07/21 03:53:14;;;;;;;16.73;11.88;;;;;;;;;;5041681;28;20041;-64
2021/07/21 03:55:41;;;;;;;17.15;11.95;;;;;;;;;;5039944;28;20041;-64
2021/07/21 03:58:09;;;;;;;18.02;11.35;;;;;;;;;;5039178;28;20080;-64
2021/07/21 04:00:35;;;;;;;19.33;12.48;;;;;;;;;;5045030;28;20041;-64
2021/07/21 04:03:02;;;;;;;18.38;11.48;;;;;;;;;;5040830;28;20041;-64
2021/07/21 04:05:30;;;;;;;17.27;11.38;;;;;;;;;;5039888;28;20093;-64
2021/07/21 04:07:56;;;;;;;19.42;11.82;;;;;;;;;;5040163;28;21056;-64
2021/07/21 04:10:23;;;;;;;18.02;12.07;;;;;;;;;;5042107;28;20049;-64
2021/07/21 04:12:51;;;;;;;19.70;11.30;;;;;;;;;;5042674;28;20071;-64
2021/07/21 04:15:21;;;;;;;17.15;11.43;;;;;;;;;;5041848;28;20385;-64
2021/07/21 04:17:49;;;;;;;16.20;9.77;;;;;;;;;;5043012;28;20079;-65
2021/07/21 04:20:15;;;;;;;17.25;10.23;;;;;;;;;;5044123;28;20044;-68
2021/07/21 04:22:42;;;;;;;19.77;10.95;;;;;;;;;;5045247;28;20060;-69
2021/07/21 04:25:10;;;;;;;14.65;9.00;;;;;;;;;;5045267;28;20041;-64
2021/07/21 04:27:37;;;;;;;17.90;10.45;;;;;;;;;;5045008;28;20445;-64
2021/07/21 04:30:04;;;;;;;17.77;10.93;;;;;;;;;;5040273;28;20052;-64
2021/07/21 04:32:30;;;;;;;16.20;9.88;;;;;;;;;;5041787;28;20488;-64
2021/07/21 04:34:57;;;;;;;15.90;10.43;;;;;;;;;;5040474;28;20045;-64
2021/07/21 04:37:24;;;;;;;16.60;11.80;;;;;;;;;;5041064;28;20485;-64
2021/07/21 04:39:52;;;;;;;17.42;10.93;;;;;;;;;;5044051;28;20067;-64
2021/07/21 04:42:19;;;;;;;20.52;12.98;;;;;;;;;;5044358;28;20087;-64
2021/07/21 04:44:46;;;;;;;21.20;13.90;;;;;;;;;;5043384;28;20582;-64
2021/07/21 04:47:13;;;;;;;23.65;14.20;;;;;;;;;;5044295;28;20051;-64
2021/07/21 04:49:40;;;;;;;22.15;14.00;;;;;;;;;;5045425;28;20040;-64
2021/07/21 04:52:06;;;;;;;20.92;12.88;;;;;;;;;;5048863;28;20041;-64
2021/07/21 04:54:33;;;;;;;19.15;11.55;;;;;;;;;;5043206;28;20479;-64
2021/07/21 04:56:59;;;;;;;22.17;12.85;;;;;;;;;;5043430;28;20064;-64
2021/07/21 04:59:27;;;;;;;26.83;15.38;;;;;;;;;;5046026;28;20063;-64
2021/07/21 05:01:53;;;;;;;25.95;15.48;;;;;;;;;;5047057;28;20109;-64
2021/07/21 05:04:19;;;;;;;23.92;14.55;;;;;;;;;;5040579;28;20110;-64
2021/07/21 05:06:46;;;;;;;25.33;15.23;;;;;;;;;;5039355;28;20060;-64
2021/07/21 05:09:12;;;;;;;26.25;14.75;;;;;;;;;;5041144;28;20040;-64
2021/07/21 05:11:39;;;;;;;24.75;14.60;;;;;;;;;;5042046;28;20110;-64
2021/07/21 05:14:06;;;;;;;26.55;14.35;;;;;;;;;;5044471;28;20069;-64
2021/07/21 05:16:32;;;;;;;23.92;16.33;;;;;;;;;;5044530;28;20048;-64
2021/07/21 05:18:59;;;;;;;28.55;16.30;;;;;;;;;;5047761;28;20051;-64
2021/07/21 05:21:27;;;;;;;24.48;15.40;;;;;;;;;;5039701;28;20056;-64
2021/07/21 05:23:53;;;;;;;27.00;15.80;;;;;;;;;;5037053;28;20053;-65
2021/07/21 05:26:20;;;;;;;25.60;16.05;;;;;;;;;;5042044;28;20087;-64
2021/07/21 05:28:46;;;;;;;31.00;15.82;;;;;;;;;;5038156;28;20049;-64
2021/07/21 05:31:12;;;;;;;27.67;16.05;;;;;;;;;;5037085;28;20124;-64
2021/07/21 05:33:38;;;;;;;25.77;16.40;;;;;;;;;;5046813;28;20041;-64
2021/07/21 05:36:05;;;;;;;31.65;18.60;;;;;;;;;;5042076;28;20114;-64
2021/07/21 05:38:32;;;;;;;27.52;17.85;;;;;;;;;;5045523;28;20044;-64
2021/07/21 05:40:58;;;;;;;29.77;18.85;;;;;;;;;;5043989;28;20119;-64
2021/07/21 05:43:26;;;;;;;25.98;18.23;;;;;;;;;;5038135;28;20110;-65
2021/07/21 05:45:53;;;;;;;28.15;18.40;;;;;;;;;;5046807;28;20447;-64
2021/07/21 05:48:19;;;;;;;29.55;17.42;;;;;;;;;;5043995;28;20049;-64
2021/07/21 05:50:45;;;;;;;26.33;16.65;;;;;;;;;;5045839;28;20124;-65
2021/07/21 05:53:12;;;;;;;29.27;17.48;;;;;;;;;;5046112;28;20483;-65
2021/07/21 05:55:38;;;;;;;28.65;15.85;;;;;;;;;;5042487;28;20041;-65
2021/07/21 05:58:04;;;;;;;30.48;18.15;;;;;;;;;;5046703;28;20463;-65
2021/07/21 06:00:31;;;;;;;28.38;16.15;;;;;;;;;;5043374;28;20045;-65
2021/07/21 06:02:57;;;;;;;27.73;16.33;;;;;;;;;;5047138;28;20060;-64
2021/07/21 06:05:24;;;;;;;25.88;15.85;;;;;;;;;;5044279;28;20041;-65
2021/07/21 06:07:50;;;;;;;31.25;16.77;;;;;;;;;;5044320;28;20075;-65
2021/07/21 06:10:16;;;;;;;29.10;16.92;;;;;;;;;;5041589;28;20072;-65
2021/07/21 06:12:42;;;;;;;26.33;16.17;;;;;;;;;;5044136;28;20155;-65
2021/07/21 06:15:09;;;;;;;25.00;16.45;;;;;;;;;;5040135;28;20061;-65
2021/07/21 06:17:36;;;;;;;28.92;16.13;;;;;;;;;;5046990;28;21689;-65
2021/07/21 06:20:04;;;;;;;29.55;16.08;;;;;;;;;;5043002;28;20147;-65
2021/07/21 06:22:33;;;;;;;27.88;15.80;;;;;;;;;;5047719;28;20064;-65
2021/07/21 06:25:00;;;;;;;23.95;14.70;;;;;;;;;;5052184;28;20052;-91
2021/07/21 06:27:27;;;;;;;23.50;14.95;;;;;;;;;;5044962;28;20068;-92
2021/07/21 06:29:53;;;;;;;22.65;14.57;;;;;;;;;;5039191;28;20056;-85
2021/07/21 06:32:19;;;;;;;23.05;14.63;;;;;;;;;;5044081;28;20044;-78
2021/07/21 06:34:45;;;;;;;22.55;15.82;;;;;;;;;;5042653;28;20052;-75
2021/07/21 06:37:11;;;;;;;20.33;13.50;;;;;;;;;;5039099;28;20048;-74
2021/07/21 06:39:37;;;;;;;18.15;12.00;;;;;;;;;;5040731;28;20104;-74
2021/07/21 06:42:04;;;;;;;19.38;11.85;;;;;;;;;;5046078;28;20104;-74
2021/07/21 06:44:30;;;;;;;19.02;12.23;;;;;;;;;;5039713;28;20392;-74
2021/07/21 06:46:56;;;;;;;15.25;10.45;;;;;;;;;;5044385;28;20075;-75
2021/07/21 06:49:23;;;;;;;15.70;11.15;;;;;;;;;;5040487;28;20085;-75
2021/07/21 06:51:49;;;;;;;17.75;11.55;;;;;;;;;;5045140;28;20044;-75
2021/07/21 06:54:15;;;;;;;17.77;10.88;;;;;;;;;;5039909;28;20049;-75
2021/07/21 06:56:41;;;;;;;20.08;10.32;;;;;;;;;;5040560;28;20069;-75
2021/07/21 06:59:07;;;;;;;14.60;9.23;;;;;;;;;;5040092;28;20376;-74
2021/07/21 07:01:34;;;;;;;14.85;10.73;;;;;;;;;;5042373;28;20128;-77
2021/07/21 07:04:00;;;;;;;18.08;11.10;;;;;;;;;;5034382;28;20076;-72
2021/07/21 07:06:26;;;;;;;15.82;11.27;;;;;;;;;;5044218;28;20057;-73
2021/07/21 07:08:53;;;;;;;17.58;10.70;;;;;;;;;;5042019;28;20377;-72
2021/07/21 07:11:19;;;;;;;14.65;9.85;;;;;;;;;;5033951;28;20040;-72
2021/07/21 07:13:45;;;;;;;14.63;9.95;;;;;;;;;;5036523;28;20061;-72
2021/07/21 07:16:13;;;;;;;15.55;10.45;;;;;;;;;;5032637;28;20068;-72
2021/07/21 07:18:40;;;;;;;16.02;9.38;;;;;;;;;;5041727;28;20481;-72
2021/07/21 07:21:06;;;;;;;12.57;9.25;;;;;;;;;;5040706;28;20041;-72
2021/07/21 07:23:32;;;;;;;15.25;10.63;;;;;;;;;;5040140;28;20037;-72
2021/07/21 07:25:59;;;;;;;14.57;9.95;;;;;;;;;;5035844;28;20103;-72
2021/07/21 07:28:25;;;;;;;17.92;11.57;;;;;;;;;;5039811;28;20477;-76
2021/07/21 07:30:51;;;;;;;16.98;10.05;;;;;;;;;;5036425;28;20444;-73
2021/07/21 07:33:17;;;;;;;15.85;9.88;;;;;;;;;;5047164;28;20049;-72
2021/07/21 07:35:44;;;;;;;13.68;9.38;;;;;;;;;;5041880;28;20029;-73
2021/07/21 07:38:11;;;;;;;13.30;8.75;;;;;;;;;;5038659;28;20033;-73
2021/07/21 07:40:40;;;;;;;11.75;8.95;;;;;;;;;;5041549;28;20171;-73
2021/07/21 07:43:06;;;;;;;13.13;8.15;;;;;;;;;;5041375;28;20053;-73
2021/07/21 07:45:32;;;;;;;14.07;8.40;;;;;;;;;;5042772;28;20037;-73
2021/07/21 07:47:59;;;;;;;18.55;8.48;;;;;;;;;;5040709;28;20056;-73
2021/07/21 07:50:25;;;;;;;11.85;8.65;;;;;;;;;;5044815;28;20120;-73
2021/07/21 07:52:51;;;;;;;27.27;8.43;;;;;;;;;;5043581;28;20063;-73
2021/07/21 07:55:17;;;;;;;13.93;8.07;;;;;;;;;;5037818;28;20037;-73
2021/07/21 07:57:44;;;;;;;11.60;8.25;;;;;;;;;;5042083;28;20041;-72
2021/07/21 08:00:11;;;;;;;12.65;8.45;;;;;;;;;;5041601;28;20052;-73
2021/07/21 08:02:37;;;;;;;12.55;8.57;;;;;;;;;;5039886;28;20036;-74
2021/07/21 08:05:04;;;;;;;11.68;8.45;;;;;;;;;;5039614;28;20045;-73
2021/07/21 08:07:33;;;;;;;13.88;9.60;;;;;;;;;;5036604;28;20068;-73
2021/07/21 08:10:00;;;;;;;15.40;9.77;;;;;;;;;;5036808;28;20076;-74
2021/07/21 08:12:27;;;;;;;12.10;8.35;;;;;;;;;;5044447;28;20045;-74
2021/07/21 08:14:53;;;;;;;12.65;8.75;;;;;;;;;;5037208;28;20563;-74
2021/07/21 08:17:19;;;;;;;10.60;8.10;;;;;;;;;;5044701;28;20492;-74
2021/07/21 08:19:46;;;;;;;13.35;8.50;;;;;;;;;;5043100;28;20110;-73
2021/07/21 08:22:12;;;;;;;12.32;8.10;;;;;;;;;;5045042;28;20411;-74
2021/07/21 08:24:38;;;;;;;12.63;7.55;;;;;;;;;;5041810;28;20049;-73
2021/07/21 08:27:05;;;;;;;12.25;8.68;;;;;;;;;;5045595;28;20037;-74
2021/07/21 08:29:31;;;;;;;12.52;8.00;;;;;;;;;;5050320;28;20040;-74
2021/07/21 08:31:57;;;;;;;11.23;7.95;;;;;;;;;;5045567;28;20048;-73
2021/07/21 08:34:23;;;;;;;15.85;7.70;;;;;;;;;;5050077;28;20072;-74
2021/07/21 08:36:50;;;;;;;11.23;7.25;;;;;;;;;;5043903;28;20401;-74
2021/07/21 08:39:16;;;;;;;9.60;7.20;;;;;;;;;;5045313;28;20053;-74
2021/07/21 08:41:44;;;;;;;11.82;8.13;;;;;;;;;;5048159;28;20044;-73
2021/07/21 08:44:13;;;;;;;14.90;7.40;;;;;;;;;;5047002;28;20037;-74
2021/07/21 08:46:40;;;;;;;10.80;7.03;;;;;;;;;;5046089;28;20041;-74
2021/07/21 08:49:07;;;;;;;11.23;7.30;;;;;;;;;;5040549;28;20042;-74
2021/07/21 08:51:34;;;;;;;11.57;7.38;;;;;;;;;;5046677;28;20096;-74
2021/07/21 08:54:00;;;;;;;11.00;7.30;;;;;;;;;;5046229;28;20044;-74
2021/07/21 08:56:26;;;;;;;12.07;7.65;;;;;;;;;;5047542;28;20148;-74
2021/07/21 08:58:53;;;;;;;10.25;7.15;;;;;;;;;;5045617;28;20076;-73
2021/07/21 09:01:19;;;;;;;11.27;8.20;;;;;;;;;;5047142;28;20045;-74
2021/07/21 09:03:46;;;;;;;12.63;7.88;;;;;;;;;;5044646;28;20048;-74
2021/07/21 09:06:13;;;;;;;11.07;7.45;;;;;;;;;;5048166;28;20082;-74
2021/07/21 09:08:40;;;;;;;13.43;7.35;;;;;;;;;;5041528;28;20048;-74
2021/07/21 09:11:06;;;;;;;14.95;7.82;;;;;;;;;;5044887;28;20104;-74
2021/07/21 09:13:36;;;;;;;11.77;7.30;;;;;;;;;;5043576;28;20373;-74
2021/07/21 09:16:04;;;;;;;8.98;6.80;;;;;;;;;;5043420;28;20570;-74
2021/07/21 09:18:31;;;;;;;10.73;7.25;;;;;;;;;;5046540;28;20038;-74
2021/07/21 09:20:59;;;;;;;11.98;7.18;;;;;;;;;;5042324;28;20049;-74
2021/07/21 09:23:36;;;;;;;9.75;7.28;;;;;;;;;;5041040;28;20068;-74
2021/07/21 09:26:03;;;;;;;10.55;7.28;;;;;;;;;;5043527;28;20107;-74
2021/07/21 09:28:37;;;;;;;10.60;7.53;;;;;;;;;;5042122;28;20111;-74
2021/07/21 09:31:04;;;;;;;11.77;7.50;;;;;;;;;;5047408;28;20162;-74
2021/07/21 09:33:30;;;;;;;13.35;7.65;;;;;;;;;;5043137;28;20124;-74
2021/07/21 09:35:57;;;;;;;11.52;7.80;;;;;;;;;;5043070;28;20049;-74
2021/07/21 09:38:25;;;;;;;12.27;6.93;;;;;;;;;;5045313;28;20195;-74
2021/07/21 09:40:53;;;;;;;10.82;7.10;;;;;;;;;;5045127;28;20049;-74
2021/07/21 09:43:20;;;;;;;14.77;8.02;;;;;;;;;;5046170;28;20049;-74
2021/07/21 09:45:47;;;;;;;13.02;7.72;;;;;;;;;;5042522;28;20606;-74
2021/07/21 09:48:13;;;;;;;15.43;8.20;;;;;;;;;;5045872;28;20049;-74
2021/07/21 09:50:41;;;;;;;15.20;8.38;;;;;;;;;;5040513;28;20099;-74
2021/07/21 09:53:09;;;;;;;10.40;6.47;;;;;;;;;;5045119;28;20157;-75
2021/07/21 09:55:37;;;;;;;12.68;7.93;;;;;;;;;;5042636;28;20044;-75
2021/07/21 09:58:07;;;;;;;11.60;7.47;;;;;;;;;;5042713;28;20060;-74
2021/07/21 10:00:35;;;;;;;10.73;7.03;;;;;;;;;;5043959;28;20072;-79
2021/07/21 10:03:08;;;;;;;13.70;7.47;;;;;;;;;;5042573;28;20094;-74
2021/07/21 10:05:35;;;;;;;10.18;6.68;;;;;;;;;;5042274;28;20045;-74
2021/07/21 10:08:02;;;;;;;9.95;7.20;;;;;;;;;;5041220;28;20034;-74
2021/07/21 10:10:29;;;;;;;10.85;6.60;;;;;;;;;;5040834;28;20052;-74
2021/07/21 10:13:01;;;;;;;9.80;6.55;;;;;;;;;;5041964;28;20051;-74
2021/07/21 10:15:28;;;;;;;9.38;6.70;;;;;;;;;;5044230;28;20502;-74
2021/07/21 10:18:04;;;;;;;11.95;6.45;;;;;;;;;;5043013;28;20049;-74
2021/07/21 10:20:31;;;;;;;8.10;5.53;;;;;;;;;;5042185;28;20037;-74
2021/07/21 10:22:57;;;;;;;10.73;6.40;;;;;;;;;;5043283;28;20124;-74
2021/07/21 10:25:24;;;;;;;9.48;6.28;;;;;;;;;;5045302;28;20060;-74
2021/07/21 10:27:50;;;;;;;10.32;6.75;;;;;;;;;;5038602;28;20128;-74
2021/07/21 10:30:17;;;;;;;8.40;5.78;;;;;;;;;;5040301;28;20037;-74
2021/07/21 10:32:44;;;;;;;7.70;5.90;;;;;;;;;;5043658;28;20037;-74
2021/07/21 10:35:10;;;;;;;11.52;6.28;;;;;;;;;;5039859;28;20156;-74
2021/07/21 10:37:37;;;;;;;8.77;6.20;;;;;;;;;;5043867;28;20481;-74
2021/07/21 10:40:06;;;;;;;8.73;5.78;;;;;;;;;;5046804;28;20073;-74
2021/07/21 10:42:32;;;;;;;9.40;6.13;;;;;;;;;;5040893;28;20044;-74
2021/07/21 10:45:13;;;;;;;9.88;6.15;;;;;;;;;;5041946;28;20037;-74
2021/07/21 10:47:44;;;;;;;7.63;5.78;;;;;;;;;;5042648;28;20072;-74
2021/07/21 10:50:28;;;;;;;9.45;6.60;;;;;;;;;;5042004;28;20219;-74
2021/07/21 10:52:59;;;;;;;;;;;;;;;;;;5044754;28;20405;-74
2021/07/21 10:55:28;;;;;;;8.20;5.80;;;;;;;;;;5041405;28;19920;-74
2021/07/21 11:00:54;;;;;;;8.45;5.45;;;;;;;;;;5036429;28;20049;-73
2021/07/21 11:03:23;;;;;;;7.18;5.65;;;;;;;;;;5050072;28;20051;-73
2021/07/21 11:06:00;;;;;;;11.10;6.10;;;;;;;;;;5045121;28;20098;-73
2021/07/21 11:08:27;;;;;;;10.23;6.22;;;;;;;;;;5050926;28;20040;-73
2021/07/21 11:10:54;;;;;;;10.38;5.85;;;;;;;;;;5050462;28;20066;-73
2021/07/21 11:13:40;;;;;;;10.32;6.38;;;;;;;;;;5048956;28;20071;-73
2021/07/21 11:16:07;;;;;;;9.65;6.63;;;;;;;;;;5041358;28;20056;-73
2021/07/21 11:18:37;;;;;;;7.45;5.90;;;;;;;;;;5050151;28;20455;-73
2021/07/21 11:21:11;;;;;;;9.38;6.63;;;;;;;;;;5050636;28;20053;-73
2021/07/21 11:23:52;;;;;;;10.23;7.20;;;;;;;;;;5044092;28;20056;-73
2021/07/21 11:26:27;;;;;;;9.65;6.35;;;;;;;;;;5035170;28;20501;-73
2021/07/21 11:28:53;;;;;;;10.40;6.15;;;;;;;;;;5044600;28;20045;-73
2021/07/21 11:31:40;;;;;;;11.07;7.07;;;;;;;;;;5049397;28;20245;-73
2021/07/21 11:34:12;;;;;;;11.45;6.15;;;;;;;;;;5040506;28;20041;-73
2021/07/21 11:36:40;;;;;;;11.27;6.38;;;;;;;;;;5035835;28;20064;-73
2021/07/21 11:39:07;;;;;;;7.90;6.10;;;;;;;;;;5041962;28;20099;-73
2021/07/21 11:41:44;;;;;;;8.63;6.38;;;;;;;;;;5043402;28;20053;-73
2021/07/21 11:44:12;;;;;;;11.90;6.95;;;;;;;;;;5041310;28;20391;-73
2021/07/21 11:46:38;;;;;;;10.02;6.70;;;;;;;;;;5040368;28;20059;-73
2021/07/21 11:49:05;;;;;;;10.40;6.75;;;;;;;;;;5041528;28;20177;-73
2021/07/21 11:51:31;;;;;;;9.27;7.05;;;;;;;;;;5042063;28;20558;-73
2021/07/21 11:53:57;;;;;;;12.30;7.00;;;;;;;;;;5049496;28;20120;-73
2021/07/21 11:56:24;;;;;;;9.68;6.93;;;;;;;;;;5049706;28;20156;-73
2021/07/21 11:58:50;;;;;;;17.10;7.95;;;;;;;;;;5047300;28;20056;-73
2021/07/21 12:01:25;;;;;;;10.02;7.10;;;;;;;;;;5043488;28;20513;-73
2021/07/21 12:03:51;;;;;;;11.88;7.45;;;;;;;;;;5042845;28;20037;-73
2021/07/21 12:06:23;;;;;;;11.23;7.43;;;;;;;;;;5041774;28;20039;-73
2021/07/21 12:08:52;;;;;;;10.65;7.07;;;;;;;;;;5042583;28;20402;-73
2021/07/21 12:11:19;;;;;;;10.20;6.38;;;;;;;;;;5045281;28;20066;-72
2021/07/21 12:13:45;;;;;;;9.23;6.28;;;;;;;;;;5044738;28;20110;-73
2021/07/21 12:16:11;;;;;;;11.75;6.72;;;;;;;;;;5040902;28;20500;-73
2021/07/21 12:18:37;;;;;;;12.80;7.70;;;;;;;;;;5039880;28;20071;-73
2021/07/21 12:21:06;;;;;;;11.57;6.85;;;;;;;;;;5036241;28;20464;-73
2021/07/21 12:23:33;;;;;;;10.35;7.35;;;;;;;;;;5037444;28;20075;-73
2021/07/21 12:26:05;;;;;;;11.73;6.65;;;;;;;;;;5037226;28;20056;-73
2021/07/21 12:28:31;;;;;;;11.68;6.85;;;;;;;;;;5034519;28;20087;-73
2021/07/21 12:30:58;;;;;;;17.70;6.68;;;;;;;;;;5034211;28;20033;-73
2021/07/21 12:33:24;;;;;;;10.30;6.50;;;;;;;;;;5046604;28;20101;-73
2021/07/21 12:35:50;;;;;;;15.48;6.57;;;;;;;;;;5042681;28;20107;-73
2021/07/21 12:38:16;;;;;;;10.85;6.80;;;;;;;;;;5041328;28;20042;-73
2021/07/21 12:40:43;;;;;;;16.85;6.78;;;;;;;;;;5041503;28;20033;-72
2021/07/21 12:43:14;;;;;;;10.07;6.40;;;;;;;;;;5044528;28;20048;-73
2021/07/21 12:45:40;;;;;;;20.85;7.55;;;;;;;;;;5043448;28;20049;-73
2021/07/21 12:48:06;;;;;;;15.35;6.85;;;;;;;;;;5034689;28;20056;-73
2021/07/21 12:50:34;;;;;;;9.63;6.00;;;;;;;;;;5030280;28;20037;-73
2021/07/21 12:53:02;;;;;;;10.82;6.40;;;;;;;;;;5034280;28;20564;-73
2021/07/21 12:55:34;;;;;;;10.27;6.40;;;;;;;;;;5043280;28;20516;-73
2021/07/21 12:58:03;;;;;;;8.15;6.10;;;;;;;;;;5036876;28;20119;-73
2021/07/21 13:00:29;;;;;;;9.20;6.07;;;;;;;;;;5037691;28;20048;-73
2021/07/21 13:03:05;;;;;;;9.90;5.93;;;;;;;;;;5041365;28;20136;-73
2021/07/21 13:05:32;;;;;;;9.82;6.28;;;;;;;;;;5043811;28;20041;-76
2021/07/21 13:08:00;;;;;;;9.48;6.10;;;;;;;;;;5041866;28;20044;-74
2021/07/21 13:10:27;;;;;;;9.02;6.45;;;;;;;;;;5046056;28;20056;-74
2021/07/21 13:12:53;;;;;;;10.23;6.32;;;;;;;;;;5041262;28;20071;-73
2021/07/21 13:15:25;;;;;;;9.45;5.63;;;;;;;;;;5041666;28;20038;-74
2021/07/21 13:18:00;;;;;;;9.13;6.10;;;;;;;;;;5044521;28;20053;-74
2021/07/21 13:20:31;;;;;;;9.57;6.03;;;;;;;;;;5048135;28;20108;-74
2021/07/21 13:23:15;;;;;;;9.32;5.82;;;;;;;;;;5048396;28;20036;-74
2021/07/21 13:25:42;;;;;;;10.10;6.30;;;;;;;;;;5039020;28;20046;-73
2021/07/21 13:28:23;;;;;;;8.05;5.25;;;;;;;;;;5040794;28;20134;-74
2021/07/21 13:30:50;;;;;;;12.43;6.28;;;;;;;;;;5046971;28;20119;-73
2021/07/21 13:33:16;;;;;;;12.48;6.60;;;;;;;;;;5041045;28;20064;-74
2021/07/21 13:35:42;;;;;;;8.88;6.45;;;;;;;;;;5044183;28;20048;-73
2021/07/21 13:38:09;;;;;;;9.18;6.22;;;;;;;;;;5042628;28;20065;-74
2021/07/21 13:40:35;;;;;;;8.68;5.95;;;;;;;;;;5041040;28;20037;-74
2021/07/21 13:43:03;;;;;;;12.02;6.10;;;;;;;;;;5042093;28;20045;-74
2021/07/21 13:45:29;;;;;;;10.73;5.90;;;;;;;;;;5037186;28;20052;-74
2021/07/21 13:47:59;;;;;;;9.75;6.03;;;;;;;;;;5042831;28;20048;-74
2021/07/21 13:50:25;;;;;;;8.30;5.65;;;;;;;;;;5047278;28;21538;-74
2021/07/21 13:52:59;;;;;;;10.75;5.53;;;;;;;;;;5044552;28;20124;-74
2021/07/21 13:55:25;;;;;;;7.63;5.40;;;;;;;;;;5044242;28;20110;-74
2021/07/21 13:57:51;;;;;;;9.63;5.50;;;;;;;;;;5046272;28;20067;-76
2021/07/21 14:00:18;;;;;;;8.90;6.43;;;;;;;;;;5042505;28;20155;-82
2021/07/21 14:02:44;;;;;;;9.10;6.15;;;;;;;;;;5047414;28;20564;-75
2021/07/21 14:05:10;;;;;;;7.47;5.78;;;;;;;;;;5045806;28;20037;-74
2021/07/21 14:07:36;;;;;;;8.55;5.97;;;;;;;;;;5043955;28;20048;-74
2021/07/21 14:10:03;;;;;;;12.50;6.15;;;;;;;;;;5043198;28;20128;-74
2021/07/21 14:12:30;;;;;;;11.43;5.90;;;;;;;;;;5039958;28;20037;-74
2021/07/21 14:14:56;;;;;;;17.60;7.03;;;;;;;;;;5040142;28;20053;-74
2021/07/21 14:17:22;;;;;;;22.98;7.40;;;;;;;;;;5046186;28;20495;-74
2021/07/21 14:19:48;;;;;;;9.63;6.72;;;;;;;;;;5038971;28;20046;-73
2021/07/21 14:22:15;;;;;;;10.80;5.88;;;;;;;;;;5044781;28;20048;-75
2021/07/21 14:24:41;;;;;;;14.70;6.32;;;;;;;;;;5042241;28;20125;-73
2021/07/21 14:27:07;;;;;;;11.40;5.55;;;;;;;;;;5043889;28;20043;-73
2021/07/21 14:29:34;;;;;;;12.13;7.57;;;;;;;;;;5040925;28;20106;-73
2021/07/21 14:32:00;;;;;;;11.48;7.28;;;;;;;;;;5040669;28;20037;-73
2021/07/21 14:34:26;;;;;;;15.38;7.20;;;;;;;;;;5048114;28;20826;-74